createdAt,value
2018-05-04T00:02:23.263Z,15.53
2018-05-04T00:04:55.827Z,15.51
2018-05-04T00:07:29.761Z,15.44
2018-05-04T00:10:03.829Z,15.46
2018-05-04T00:12:36.417Z,15.42
2018-05-04T00:15:07.655Z,15.44
2018-05-04T00:17:40.329Z,15.46
2018-05-04T00:20:11.653Z,15.46
2018-05-04T00:22:43.870Z,15.34
2018-05-04T00:25:16.526Z,15.41
2018-05-04T00:27:49.687Z,15.41
2018-05-04T00:30:21.936Z,15.46
2018-05-04T00:32:56.703Z,15.47
2018-05-04T00:35:28.942Z,15.39
2018-05-04T00:38:00.329Z,15.41
2018-05-04T00:40:32.818Z,15.35
2018-05-04T00:43:06.830Z,15.32
2018-05-04T00:45:39.094Z,15.30
2018-05-04T00:48:11.306Z,15.29
2018-05-04T00:50:42.637Z,15.32
2018-05-04T00:53:15.217Z,15.32
2018-05-04T00:55:50.062Z,15.32
2018-05-04T00:58:21.438Z,15.42
2018-05-04T01:00:54.122Z,15.44
2018-05-04T01:03:26.278Z,15.47
2018-05-04T01:06:00.196Z,15.42
2018-05-04T01:08:32.227Z,15.38
2018-05-04T01:11:04.525Z,15.44
2018-05-04T01:13:38.022Z,15.43
2018-05-04T01:16:11.960Z,15.39
2018-05-04T01:18:44.072Z,15.41
2018-05-04T01:21:18.231Z,15.31
2018-05-04T01:23:51.390Z,15.37
2018-05-04T01:26:25.614Z,15.34
2018-05-04T01:28:57.836Z,15.34
2018-05-04T01:31:31.809Z,15.32
2018-05-04T01:34:04.421Z,15.32
2018-05-04T01:36:38.347Z,15.31
2018-05-04T01:39:10.575Z,15.38
2018-05-04T01:41:42.363Z,15.25
2018-05-04T01:44:15.513Z,15.28
2018-05-04T01:46:46.906Z,15.32
2018-05-04T01:49:20.849Z,15.19
2018-05-04T01:51:54.749Z,15.19
2018-05-04T01:54:28.338Z,15.19
2018-05-04T01:56:59.707Z,15.23
2018-05-04T01:59:33.228Z,15.09
2018-05-04T02:02:06.390Z,15.06
2018-05-04T02:04:38.713Z,15.02
2018-05-04T02:07:12.227Z,15.00
2018-05-04T02:09:43.681Z,15.03
2018-05-04T02:12:17.595Z,15.12
2018-05-04T02:14:49.280Z,15.07
2018-05-04T02:17:22.411Z,15.15
2018-05-04T02:19:56.473Z,15.13
2018-05-04T02:22:28.123Z,15.19
2018-05-04T02:25:00.892Z,15.25
2018-05-04T02:27:35.137Z,15.20
2018-05-04T02:30:08.261Z,15.27
2018-05-04T02:32:42.213Z,15.25
2018-05-04T02:35:15.371Z,15.26
2018-05-04T02:37:49.765Z,15.11
2018-05-04T02:40:23.643Z,15.21
2018-05-04T02:42:57.870Z,15.21
2018-05-04T02:45:31.058Z,15.23
2018-05-04T02:48:03.340Z,15.21
2018-05-04T02:50:36.454Z,15.22
2018-05-04T02:53:09.665Z,15.29
2018-05-04T02:55:43.339Z,15.22
2018-05-04T02:58:17.230Z,15.22
2018-05-04T03:00:50.884Z,15.21
2018-05-04T03:03:24.814Z,15.30
2018-05-04T03:05:57.050Z,15.23
2018-05-04T03:08:30.522Z,15.21
2018-05-04T03:11:03.831Z,15.20
2018-05-04T03:13:37.733Z,15.15
2018-05-04T03:16:12.155Z,15.11
2018-05-04T03:18:46.062Z,15.11
2018-05-04T03:21:19.251Z,15.07
2018-05-04T03:23:51.476Z,14.98
2018-05-04T03:26:24.593Z,15.05
2018-05-04T03:28:56.876Z,15.02
2018-05-04T03:31:30.255Z,14.98
2018-05-04T03:34:03.425Z,14.70
2018-05-04T03:36:37.684Z,14.54
2018-05-04T03:39:11.806Z,14.70
2018-05-04T03:41:45.270Z,14.76
2018-05-04T03:44:19.265Z,14.66
2018-05-04T03:46:52.474Z,14.62
2018-05-04T03:49:25.993Z,14.53
2018-05-04T03:51:58.362Z,14.48
2018-05-04T03:54:31.705Z,14.51
2018-05-04T03:57:14.694Z,14.53
2018-05-04T03:59:58.677Z,14.28
2018-05-04T04:04:07.738Z,14.40
2018-05-04T04:06:42.616Z,14.34
2018-05-04T04:09:15.168Z,14.33
2018-05-04T04:11:48.289Z,14.41
2018-05-04T04:14:21.814Z,14.43
2018-05-04T04:16:54.155Z,14.44
2018-05-04T04:19:27.323Z,14.42
2018-05-04T04:22:01.511Z,14.51
2018-05-04T04:24:35.370Z,14.57
2018-05-04T04:27:08.672Z,14.57
2018-05-04T04:29:44.928Z,14.59
2018-05-04T04:32:18.074Z,14.64
2018-05-04T04:34:51.332Z,14.67
2018-05-04T04:37:24.477Z,14.75
2018-05-04T04:39:56.011Z,14.86
2018-05-04T04:42:28.517Z,14.90
2018-05-04T04:44:59.958Z,15.13
2018-05-04T04:47:31.285Z,15.14
2018-05-04T04:50:06.255Z,14.88
2018-05-04T04:52:38.549Z,14.99
2018-05-04T04:55:10.697Z,15.04
2018-05-04T04:57:42.883Z,15.22
2018-05-04T05:00:17.384Z,15.17
2018-05-04T05:02:51.749Z,15.41
2018-05-04T05:05:24.556Z,15.19
2018-05-04T05:07:57.691Z,15.52
2018-05-04T05:10:30.277Z,15.75
2018-05-04T05:13:04.103Z,15.72
2018-05-04T05:15:38.700Z,15.92
2018-05-04T05:18:13.162Z,16.10
2018-05-04T05:20:45.378Z,16.24
2018-05-04T05:23:20.956Z,16.27
2018-05-04T05:25:54.924Z,16.37
2018-05-04T05:28:28.957Z,16.59
2018-05-04T05:31:03.476Z,16.60
2018-05-04T05:33:37.544Z,16.75
2018-05-04T05:36:11.804Z,16.80
2018-05-04T05:38:44.964Z,16.98
2018-05-04T05:41:18.095Z,17.21
2018-05-04T05:43:52.751Z,17.22
2018-05-04T05:46:25.894Z,16.95
2018-05-04T05:48:58.024Z,16.91
2018-05-04T05:51:29.671Z,17.13
2018-05-04T05:54:02.794Z,17.15
2018-05-04T05:56:34.337Z,17.00
2018-05-04T05:59:07.489Z,17.20
2018-05-04T06:01:42.249Z,17.28
2018-05-04T06:04:16.285Z,17.40
2018-05-04T06:06:50.131Z,17.22
2018-05-04T06:09:23.334Z,17.34
2018-05-04T06:11:56.958Z,17.45
2018-05-04T06:14:30.791Z,17.45
2018-05-04T06:17:04.232Z,17.30
2018-05-04T06:19:37.506Z,17.57
2018-05-04T06:22:11.394Z,17.69
2018-05-04T06:24:44.092Z,17.86
2018-05-04T06:27:21.200Z,18.06
2018-05-04T06:29:55.342Z,18.04
2018-05-04T06:32:29.605Z,18.16
2018-05-04T06:35:02.699Z,18.13
2018-05-04T06:37:36.151Z,18.14
2018-05-04T06:40:08.242Z,18.34
2018-05-04T06:42:41.358Z,18.40
2018-05-04T06:45:16.072Z,18.15
2018-05-04T06:47:49.230Z,18.14
2018-05-04T06:50:26.174Z,18.29
2018-05-04T06:53:00.510Z,18.64
2018-05-04T06:58:12.968Z,18.90
2018-05-04T07:00:46.208Z,19.11
2018-05-04T07:03:19.799Z,18.85
2018-05-04T07:05:52.103Z,18.89
2018-05-04T07:08:25.992Z,19.11
2018-05-04T07:10:59.542Z,19.47
2018-05-04T07:13:33.445Z,19.83
2018-05-04T07:16:06.625Z,20.20
2018-05-04T07:18:41.560Z,20.27
2018-05-04T07:21:15.569Z,20.39
2018-05-04T07:23:47.825Z,20.16
2018-05-04T07:26:21.127Z,20.25
2018-05-04T07:28:55.075Z,20.38
2018-05-04T07:31:28.852Z,20.35
2018-05-04T07:34:01.119Z,20.30
2018-05-04T07:36:34.314Z,20.65
2018-05-04T07:39:08.989Z,20.95
2018-05-04T07:41:41.394Z,21.12
2018-05-04T07:44:23.963Z,20.86
2018-05-04T07:46:57.438Z,20.69
2018-05-04T07:49:28.872Z,20.95
2018-05-04T07:52:04.504Z,21.21
2018-05-04T07:54:42.957Z,21.26
2018-05-04T07:57:24.884Z,21.38
2018-05-04T07:59:58.226Z,21.28
2018-05-04T08:02:32.151Z,21.19
2018-05-04T08:05:05.525Z,20.93
2018-05-04T08:07:39.250Z,21.33
2018-05-04T08:10:14.159Z,21.47
2018-05-04T08:12:50.573Z,21.31
2018-05-04T08:15:22.814Z,21.52
2018-05-04T08:17:55.429Z,21.45
2018-05-04T08:20:29.017Z,21.02
2018-05-04T08:23:01.187Z,21.23
2018-05-04T08:25:32.528Z,21.35
2018-05-04T08:28:07.694Z,21.46
2018-05-04T08:30:39.560Z,21.52
2018-05-04T08:33:12.856Z,21.62
2018-05-04T08:35:46.512Z,21.51
2018-05-04T08:38:18.277Z,22.02
2018-05-04T08:40:55.028Z,22.21
2018-05-04T08:43:28.933Z,22.27
2018-05-04T08:46:00.350Z,22.07
2018-05-04T08:48:34.474Z,22.33
2018-05-04T08:51:06.598Z,22.54
2018-05-04T08:53:39.037Z,22.70
2018-05-04T08:56:11.680Z,23.00
2018-05-04T08:58:43.079Z,22.97
2018-05-04T09:01:15.495Z,23.11
2018-05-04T09:03:50.220Z,22.84
2018-05-04T09:06:23.773Z,23.01
2018-05-04T09:08:56.980Z,23.37
2018-05-04T09:11:32.449Z,23.39
2018-05-04T09:14:04.714Z,23.47
2018-05-04T09:16:36.259Z,23.51
2018-05-04T09:19:08.558Z,23.20
2018-05-04T09:21:41.280Z,23.44
2018-05-04T09:24:13.154Z,23.39
2018-05-04T09:26:44.545Z,23.69
2018-05-04T09:29:16.790Z,23.81
2018-05-04T09:31:48.219Z,23.85
2018-05-04T09:34:21.446Z,24.48
2018-05-04T09:36:54.357Z,24.22
2018-05-04T09:39:27.475Z,24.15
2018-05-04T09:42:00.671Z,24.09
2018-05-04T09:44:33.905Z,24.12
2018-05-04T09:47:06.267Z,24.62
2018-05-04T09:49:39.091Z,24.85
2018-05-04T09:52:11.608Z,24.94
2018-05-04T09:54:45.186Z,25.00
2018-05-04T09:57:17.892Z,25.18
2018-05-04T09:59:50.271Z,25.03
2018-05-04T10:02:25.591Z,25.09
2018-05-04T10:04:59.784Z,24.81
2018-05-04T10:07:34.616Z,24.63
2018-05-04T10:10:09.125Z,24.97
2018-05-04T10:12:42.855Z,25.27
2018-05-04T10:15:16.964Z,25.10
2018-05-04T10:17:49.181Z,24.94
2018-05-04T10:20:22.342Z,24.89
2018-05-04T10:22:58.764Z,25.11
2018-05-04T10:25:33.112Z,25.08
2018-05-04T10:28:07.230Z,25.07
2018-05-04T10:30:42.186Z,25.66
2018-05-04T10:33:16.298Z,25.35
2018-05-04T10:35:48.291Z,25.21
2018-05-04T10:38:21.692Z,25.41
2018-05-04T10:40:55.093Z,25.51
2018-05-04T10:43:29.104Z,25.72
2018-05-04T10:46:01.482Z,25.64
2018-05-04T10:48:35.514Z,25.46
2018-05-04T10:51:10.456Z,25.32
2018-05-04T10:53:44.380Z,25.19
2018-05-04T10:56:18.311Z,25.46
2018-05-04T10:58:51.070Z,25.35
2018-05-04T11:01:23.472Z,25.42
2018-05-04T11:03:59.060Z,25.67
2018-05-04T11:06:33.008Z,26.25
2018-05-04T11:09:07.723Z,26.65
2018-05-04T11:11:40.804Z,26.11
2018-05-04T11:14:14.972Z,26.34
2018-05-04T11:16:49.609Z,26.40
2018-05-04T11:19:23.459Z,26.32
2018-05-04T11:21:54.915Z,26.48
2018-05-04T11:24:29.319Z,26.63
2018-05-04T11:27:02.056Z,27.09
2018-05-04T11:29:33.857Z,26.95
2018-05-04T11:32:07.612Z,26.77
2018-05-04T11:34:49.630Z,26.90
2018-05-04T11:37:24.590Z,26.85
2018-05-04T11:39:57.713Z,27.13
2018-05-04T11:42:29.220Z,26.93
2018-05-04T11:45:03.467Z,26.66
2018-05-04T11:47:35.671Z,26.73
2018-05-04T11:50:07.176Z,26.64
2018-05-04T11:52:39.416Z,27.02
2018-05-04T11:55:11.280Z,26.82
2018-05-04T11:57:44.046Z,26.43
2018-05-04T12:00:17.248Z,26.64
2018-05-04T12:02:51.345Z,27.00
2018-05-04T12:05:25.527Z,27.15
2018-05-04T12:07:59.694Z,27.02
2018-05-04T12:10:32.043Z,26.77
2018-05-04T12:13:04.380Z,27.01
2018-05-04T12:15:37.032Z,27.01
2018-05-04T12:18:09.355Z,26.26
2018-05-04T12:20:41.611Z,26.69
2018-05-04T12:23:14.334Z,26.98
2018-05-04T12:25:48.138Z,27.02
2018-05-04T12:28:21.636Z,27.03
2018-05-04T12:30:53.230Z,27.14
2018-05-04T12:33:24.639Z,27.15
2018-05-04T12:35:56.006Z,27.34
2018-05-04T12:38:27.542Z,27.00
2018-05-04T12:41:02.359Z,27.33
2018-05-04T12:43:36.306Z,27.29
2018-05-04T12:46:08.590Z,27.21
2018-05-04T12:48:40.383Z,26.95
2018-05-04T12:51:12.152Z,27.04
2018-05-04T12:53:45.456Z,27.28
2018-05-04T12:56:17.816Z,27.40
2018-05-04T12:58:52.599Z,27.27
2018-05-04T13:01:27.175Z,27.03
2018-05-04T13:03:58.759Z,27.18
2018-05-04T13:06:30.189Z,27.46
2018-05-04T13:09:01.642Z,27.45
2018-05-04T13:11:33.890Z,27.42
2018-05-04T13:14:06.367Z,27.24
2018-05-04T13:16:40.271Z,27.33
2018-05-04T13:19:13.103Z,27.14
2018-05-04T13:21:45.339Z,26.86
2018-05-04T13:24:17.629Z,26.87
2018-05-04T13:26:49.269Z,27.37
2018-05-04T13:29:27.181Z,27.61
2018-05-04T13:32:00.562Z,27.49
2018-05-04T13:34:32.923Z,28.15
2018-05-04T13:37:06.661Z,28.35
2018-05-04T13:39:40.644Z,28.20
2018-05-04T13:42:14.036Z,28.11
2018-05-04T13:44:46.901Z,28.40
2018-05-04T13:47:20.570Z,28.55
2018-05-04T13:49:53.802Z,28.51
2018-05-04T13:52:27.458Z,28.22
2018-05-04T13:55:05.459Z,28.42
2018-05-04T14:00:55.536Z,28.55
2018-05-04T14:03:28.876Z,28.28
2018-05-04T14:06:02.591Z,28.28
2018-05-04T14:08:35.919Z,28.50
2018-05-04T14:11:09.188Z,29.03
2018-05-04T14:13:42.455Z,28.92
2018-05-04T14:16:15.667Z,28.78
2018-05-04T14:18:49.354Z,28.24
2018-05-04T14:21:21.906Z,28.57
2018-05-04T14:23:55.073Z,28.68
2018-05-04T14:26:28.817Z,28.74
2018-05-04T14:29:06.848Z,29.16
2018-05-04T14:31:42.540Z,28.66
2018-05-04T14:34:15.942Z,28.57
2018-05-04T14:36:47.308Z,29.05
2018-05-04T14:39:19.811Z,28.38
2018-05-04T14:41:52.123Z,28.88
2018-05-04T14:44:23.822Z,29.33
2018-05-04T14:46:57.126Z,29.34
2018-05-04T14:49:31.487Z,28.66
2018-05-04T14:52:03.143Z,28.44
2018-05-04T14:54:36.321Z,28.43
2018-05-04T14:57:07.813Z,28.52
2018-05-04T14:59:40.020Z,28.72
2018-05-04T15:02:15.627Z,28.55
2018-05-04T15:04:48.942Z,28.64
2018-05-04T15:07:22.361Z,29.03
2018-05-04T15:09:58.338Z,29.19
2018-05-04T15:12:31.468Z,28.95
2018-05-04T15:15:06.257Z,28.72
2018-05-04T15:17:41.667Z,29.42
2018-05-04T15:20:13.950Z,29.96
2018-05-04T15:22:47.163Z,30.09
2018-05-04T15:25:21.135Z,29.44
2018-05-04T15:27:54.562Z,29.04
2018-05-04T15:30:28.429Z,28.56
2018-05-04T15:33:00.953Z,28.56
2018-05-04T15:35:34.232Z,28.52
2018-05-04T15:38:07.390Z,28.12
2018-05-04T15:40:40.359Z,27.79
2018-05-04T15:43:14.287Z,27.97
2018-05-04T15:45:52.838Z,28.28
2018-05-04T15:48:29.589Z,28.01
2018-05-04T15:51:06.953Z,27.93
2018-05-04T15:53:40.140Z,28.19
2018-05-04T15:56:13.589Z,27.87
2018-05-04T15:58:48.250Z,27.32
2018-05-04T16:01:21.537Z,27.01
2018-05-04T16:03:54.725Z,27.42
2018-05-04T16:06:30.188Z,27.96
2018-05-04T16:09:01.636Z,28.11
2018-05-04T16:11:35.627Z,27.78
2018-05-04T16:14:08.402Z,27.33
2018-05-04T16:16:42.366Z,27.57
2018-05-04T16:19:14.571Z,27.90
2018-05-04T16:21:48.484Z,27.79
2018-05-04T16:24:19.946Z,27.57
2018-05-04T16:26:53.546Z,27.61
2018-05-04T16:29:25.196Z,27.42
2018-05-04T16:31:59.094Z,27.29
2018-05-04T16:34:32.885Z,27.29
2018-05-04T16:37:05.210Z,27.38
2018-05-04T16:39:37.523Z,27.16
2018-05-04T16:42:11.096Z,26.99
2018-05-04T16:44:43.405Z,27.05
2018-05-04T16:47:20.672Z,26.66
2018-05-04T16:49:53.835Z,26.63
2018-05-04T16:52:26.237Z,26.64
2018-05-04T16:54:58.582Z,26.43
2018-05-04T16:57:33.122Z,26.59
2018-05-04T17:00:07.904Z,26.53
2018-05-04T17:02:39.352Z,26.51
2018-05-04T17:05:11.668Z,26.32
2018-05-04T17:07:43.132Z,26.75
2018-05-04T17:10:14.744Z,26.49
2018-05-04T17:12:46.290Z,26.58
2018-05-04T17:15:19.643Z,26.56
2018-05-04T17:17:54.622Z,26.50
2018-05-04T17:20:28.947Z,25.85
2018-05-04T17:23:01.195Z,25.78
2018-05-04T17:25:33.425Z,25.69
2018-05-04T17:28:08.000Z,25.39
2018-05-04T17:30:39.360Z,25.63
2018-05-04T17:33:10.825Z,25.69
2018-05-04T17:35:42.526Z,25.17
2018-05-04T17:38:14.839Z,24.82
2018-05-04T17:40:46.362Z,24.49
2018-05-04T17:43:17.591Z,23.92
2018-05-04T17:45:49.469Z,23.62
2018-05-04T17:48:21.666Z,23.26
2018-05-04T17:50:53.191Z,23.03
2018-05-04T17:53:24.777Z,22.92
2018-05-04T17:55:56.474Z,22.65
2018-05-04T17:58:28.766Z,22.46
2018-05-04T18:01:00.091Z,22.47
2018-05-04T18:03:31.719Z,22.28
2018-05-04T18:06:03.089Z,22.41
2018-05-04T18:08:35.234Z,22.30
2018-05-04T18:11:06.538Z,22.07
2018-05-04T18:13:37.956Z,21.84
2018-05-04T18:16:09.757Z,21.86
2018-05-04T18:18:41.216Z,21.64
2018-05-04T18:21:12.625Z,21.60
2018-05-04T18:23:44.020Z,21.73
2018-05-04T18:26:15.507Z,21.48
2018-05-04T18:28:47.973Z,21.42
2018-05-04T18:31:19.233Z,21.22
2018-05-04T18:33:50.568Z,21.13
2018-05-04T18:36:22.187Z,21.11
2018-05-04T18:38:53.514Z,21.13
2018-05-04T18:41:26.991Z,21.05
2018-05-04T18:43:59.208Z,20.92
2018-05-04T18:46:30.832Z,20.91
2018-05-04T18:49:02.607Z,20.76
2018-05-04T18:51:35.887Z,20.75
2018-05-04T18:54:08.778Z,20.47
2018-05-04T18:56:40.251Z,20.43
2018-05-04T18:59:12.555Z,20.51
2018-05-04T19:01:44.323Z,20.37
2018-05-04T19:04:15.723Z,20.35
2018-05-04T19:06:47.114Z,20.30
2018-05-04T19:09:18.559Z,20.23
2018-05-04T19:11:50.673Z,20.29
2018-05-04T19:14:23.277Z,20.21
2018-05-04T19:16:54.608Z,19.98
2018-05-04T19:19:26.302Z,19.79
2018-05-04T19:21:58.158Z,19.75
2018-05-04T19:24:30.426Z,19.81
2018-05-04T19:27:01.773Z,19.72
2018-05-04T19:29:34.344Z,19.63
2018-05-04T19:32:05.726Z,19.52
2018-05-04T19:34:37.938Z,19.59
2018-05-04T19:37:09.795Z,19.68
2018-05-04T19:39:41.101Z,19.73
2018-05-04T19:42:13.310Z,19.57
2018-05-04T19:44:44.797Z,19.58
2018-05-04T19:47:16.651Z,19.45
2018-05-04T19:49:49.263Z,19.53
2018-05-04T19:52:20.656Z,19.46
2018-05-04T19:54:52.093Z,19.48
2018-05-04T19:57:23.948Z,19.48
2018-05-04T19:59:55.362Z,19.48
2018-05-04T20:02:26.928Z,19.36
2018-05-04T20:04:58.273Z,19.36
2018-05-04T20:07:29.743Z,19.43
2018-05-04T20:10:02.406Z,19.47
2018-05-04T20:12:33.984Z,19.45
2018-05-04T20:15:06.946Z,19.46
2018-05-04T20:17:41.915Z,19.46
2018-05-04T20:20:14.099Z,19.29
2018-05-04T20:22:46.048Z,19.15
2018-05-04T20:25:17.532Z,19.11
2018-05-04T20:27:48.933Z,19.21
2018-05-04T20:30:20.380Z,19.21
2018-05-04T20:32:52.651Z,19.14
2018-05-04T20:35:26.604Z,19.04
2018-05-04T20:37:57.964Z,18.99
2018-05-04T20:40:30.085Z,19.04
2018-05-04T20:43:02.141Z,19.02
2018-05-04T20:45:34.376Z,19.08
2018-05-04T20:48:06.221Z,18.97
2018-05-04T20:50:37.676Z,18.94
2018-05-04T20:53:09.999Z,19.06
2018-05-04T20:55:42.784Z,19.06
2018-05-04T20:58:14.397Z,19.06
2018-05-04T21:00:46.089Z,18.99
2018-05-04T21:03:17.521Z,19.01
2018-05-04T21:05:49.792Z,18.83
2018-05-04T21:08:23.696Z,18.70
2018-05-04T21:10:55.131Z,18.63
2018-05-04T21:13:26.864Z,18.64
2018-05-04T21:15:58.713Z,18.52
2018-05-04T21:18:30.237Z,18.28
2018-05-04T21:21:02.522Z,18.29
2018-05-04T21:23:35.118Z,18.17
2018-05-04T21:26:06.645Z,18.21
2018-05-04T21:28:38.885Z,18.22
2018-05-04T21:31:11.547Z,18.18
2018-05-04T21:33:42.979Z,18.13
2018-05-04T21:36:14.393Z,18.20
2018-05-04T21:38:46.765Z,18.21
2018-05-04T21:41:18.100Z,18.19
2018-05-04T21:43:50.109Z,18.22
2018-05-04T21:46:21.450Z,18.10
2018-05-04T21:48:56.459Z,18.02
2018-05-04T21:51:28.833Z,18.07
2018-05-04T21:54:00.108Z,18.05
2018-05-04T21:56:31.486Z,18.08
2018-05-04T21:59:02.966Z,18.16
2018-05-04T22:01:34.791Z,18.04
2018-05-04T22:04:06.210Z,18.00
2018-05-04T22:06:37.581Z,18.00
2018-05-04T22:09:11.047Z,18.02
2018-05-04T22:11:42.455Z,18.13
2018-05-04T22:14:13.738Z,18.13
2018-05-04T22:16:45.581Z,18.08
2018-05-04T22:19:17.784Z,18.13
2018-05-04T22:21:49.298Z,18.10
2018-05-04T22:24:22.437Z,18.04
2018-05-04T22:26:55.306Z,17.93
2018-05-04T22:29:27.043Z,17.81
2018-05-04T22:31:58.436Z,17.72
2018-05-04T22:34:30.003Z,17.63
2018-05-04T22:37:01.299Z,17.62
2018-05-04T22:39:32.559Z,17.52
2018-05-04T22:42:04.689Z,17.55
2018-05-04T22:44:36.021Z,17.47
2018-05-04T22:47:08.402Z,17.58
2018-05-04T22:49:40.209Z,17.42
2018-05-04T22:52:11.542Z,17.42
2018-05-04T22:54:45.085Z,17.38
2018-05-04T22:57:16.416Z,17.33
2018-05-04T22:59:47.865Z,17.28
2018-05-04T23:02:19.579Z,17.28
2018-05-04T23:04:50.916Z,17.23
2018-05-04T23:07:22.311Z,17.22
2018-05-04T23:09:54.244Z,17.21
2018-05-04T23:12:25.702Z,17.12
2018-05-04T23:14:57.071Z,17.12
2018-05-04T23:17:28.836Z,17.12
2018-05-04T23:20:00.935Z,17.04
2018-05-04T23:22:34.700Z,17.08
2018-05-04T23:25:06.040Z,16.97
2018-05-04T23:27:37.512Z,16.90
2018-05-04T23:30:09.301Z,17.03
2018-05-04T23:32:42.569Z,17.01
2018-05-04T23:35:14.059Z,17.04
2018-05-04T23:37:45.317Z,16.96
2018-05-04T23:40:16.675Z,17.00
2018-05-04T23:42:48.308Z,17.03
2018-05-04T23:45:20.390Z,16.86
2018-05-04T23:47:51.871Z,16.96
2018-05-04T23:50:24.023Z,16.93
2018-05-04T23:52:56.149Z,16.92
2018-05-04T23:55:29.091Z,16.85
2018-05-04T23:58:00.527Z,16.98
